createdAt,value
2023-03-07T00:03:29.461Z,60.92
2023-03-07T00:08:39.063Z,60.98
2023-03-07T00:13:47.192Z,60.77
2023-03-07T00:18:56.407Z,60.76
2023-03-07T00:24:05.160Z,60.78
2023-03-07T00:29:13.637Z,60.89
2023-03-07T00:34:22.462Z,60.93
2023-03-07T00:39:30.992Z,61.12
2023-03-07T00:44:40.049Z,60.94
2023-03-07T00:49:48.418Z,61.05
2023-03-07T00:54:56.524Z,60.85
2023-03-07T01:00:06.590Z,60.86
2023-03-07T01:05:15.007Z,61.03
2023-03-07T01:10:23.457Z,60.97
2023-03-07T01:15:31.912Z,61.09
2023-03-07T01:20:42.862Z,60.99
2023-03-07T01:25:51.202Z,61.19
2023-03-07T01:31:03.716Z,61.16
2023-03-07T01:36:20.253Z,61.33
2023-03-07T01:41:32.513Z,61.37
2023-03-07T01:46:53.870Z,61.33
2023-03-07T01:52:09.906Z,61.47
2023-03-07T01:57:25.439Z,61.36
2023-03-07T02:02:35.136Z,61.48
2023-03-07T02:07:48.285Z,61.55
2023-03-07T02:12:57.624Z,61.47
2023-03-07T02:18:07.049Z,61.53
2023-03-07T02:23:25.407Z,61.64
2023-03-07T02:28:34.269Z,61.56
2023-03-07T02:33:43.581Z,61.60
2023-03-07T02:38:55.740Z,61.57
2023-03-07T02:44:04.901Z,61.49
2023-03-07T02:49:13.472Z,61.51
2023-03-07T02:54:21.667Z,61.58
2023-03-07T02:59:29.023Z,61.56
2023-03-07T03:04:37.587Z,61.76
2023-03-07T03:09:45.838Z,61.63
2023-03-07T03:14:53.920Z,61.86
2023-03-07T03:20:02.161Z,61.86
2023-03-07T03:25:13.806Z,62.18
2023-03-07T03:30:23.311Z,62.19
2023-03-07T03:35:31.829Z,62.36
2023-03-07T03:40:41.773Z,62.35
2023-03-07T03:45:58.322Z,62.54
2023-03-07T03:51:09.492Z,62.46
2023-03-07T03:56:20.297Z,62.35
2023-03-07T04:01:29.767Z,62.20
2023-03-07T04:06:38.956Z,62.21
2023-03-07T04:11:47.168Z,62.31
2023-03-07T04:16:55.769Z,62.39
2023-03-07T04:22:04.469Z,62.41
2023-03-07T04:27:13.048Z,62.69
2023-03-07T04:32:20.850Z,62.81
2023-03-07T04:37:29.975Z,62.96
2023-03-07T04:42:42.257Z,63.13
2023-03-07T04:47:52.618Z,63.09
2023-03-07T04:52:59.995Z,63.18
2023-03-07T04:58:13.363Z,62.90
2023-03-07T05:03:22.535Z,62.86
2023-03-07T05:08:31.412Z,63.00
2023-03-07T05:13:39.763Z,62.99
2023-03-07T05:18:48.577Z,63.01
2023-03-07T05:23:57.045Z,63.14
2023-03-07T05:29:04.784Z,63.22
2023-03-07T05:34:12.457Z,63.20
2023-03-07T05:39:21.624Z,63.35
2023-03-07T05:44:31.653Z,63.49
2023-03-07T05:49:40.968Z,63.76
2023-03-07T05:54:51.346Z,63.80
2023-03-07T06:00:00.093Z,63.95
2023-03-07T06:05:09.787Z,64.05
2023-03-07T06:10:18.650Z,64.22
2023-03-07T06:15:27.492Z,64.46
2023-03-07T06:20:42.191Z,64.59
2023-03-07T06:25:51.107Z,64.60
2023-03-07T06:30:59.546Z,64.60
2023-03-07T06:36:12.659Z,64.79
2023-03-07T06:41:21.662Z,64.75
2023-03-07T06:46:31.056Z,65.08
2023-03-07T06:51:40.287Z,65.19
2023-03-07T06:56:49.031Z,65.29
2023-03-07T07:02:00.380Z,65.57
2023-03-07T07:07:08.995Z,65.48
2023-03-07T07:12:17.220Z,65.69
2023-03-07T07:17:26.423Z,65.74
2023-03-07T07:22:35.349Z,65.66
2023-03-07T07:27:43.920Z,65.84
2023-03-07T07:32:52.577Z,65.82
2023-03-07T07:38:02.817Z,65.79
2023-03-07T07:43:14.115Z,65.76
2023-03-07T07:48:27.395Z,65.84
2023-03-07T07:53:35.690Z,65.80
2023-03-07T07:58:43.527Z,65.77
2023-03-07T08:03:52.882Z,65.65
2023-03-07T08:09:01.814Z,65.53
2023-03-07T08:14:09.211Z,65.44
2023-03-07T08:19:17.380Z,65.34
2023-03-07T08:24:38.541Z,65.10
2023-03-07T08:29:51.875Z,64.45
2023-03-07T08:35:00.524Z,63.97
2023-03-07T08:40:10.942Z,63.50
2023-03-07T08:45:21.342Z,63.02
2023-03-07T08:50:29.409Z,62.91
2023-03-07T08:55:40.347Z,61.99
2023-03-07T09:00:48.820Z,62.07
2023-03-07T09:05:57.348Z,61.81
2023-03-07T09:11:05.951Z,61.70
2023-03-07T09:16:14.557Z,61.23
2023-03-07T09:21:21.940Z,60.86
2023-03-07T09:26:30.774Z,60.38
2023-03-07T09:31:39.548Z,59.51
2023-03-07T09:36:48.087Z,59.33
2023-03-07T09:42:12.000Z,59.18
2023-03-07T09:47:39.780Z,58.75
2023-03-07T09:52:48.781Z,58.52
2023-03-07T09:58:01.568Z,58.20
2023-03-07T10:03:28.325Z,58.18
2023-03-07T10:08:36.698Z,57.63
2023-03-07T10:13:59.328Z,57.30
2023-03-07T10:19:17.453Z,56.28
2023-03-07T10:24:43.812Z,56.05
2023-03-07T10:29:54.215Z,56.62
2023-03-07T10:35:16.163Z,56.85
2023-03-07T10:40:28.414Z,57.09
2023-03-07T10:45:38.267Z,57.37
2023-03-07T10:50:51.764Z,57.13
2023-03-07T10:56:14.138Z,56.66
2023-03-07T11:01:26.033Z,56.87
2023-03-07T11:06:40.763Z,56.87
2023-03-07T11:11:54.942Z,56.45
2023-03-07T11:17:04.743Z,56.31
2023-03-07T11:22:32.783Z,55.21
2023-03-07T11:27:50.836Z,54.97
2023-03-07T11:33:09.215Z,55.35
2023-03-07T11:38:29.639Z,55.47
2023-03-07T11:43:50.507Z,55.42
2023-03-07T11:49:11.945Z,55.34
2023-03-07T11:54:30.132Z,55.16
2023-03-07T12:00:18.410Z,55.65
2023-03-07T12:05:47.108Z,55.64
2023-03-07T12:11:07.066Z,56.07
2023-03-07T12:16:27.764Z,56.49
2023-03-07T12:21:58.577Z,56.58
2023-03-07T12:27:14.831Z,57.05
2023-03-07T12:32:26.254Z,57.51
2023-03-07T12:37:39.952Z,58.14
2023-03-07T12:42:53.948Z,58.68
2023-03-07T12:48:09.466Z,59.11
2023-03-07T12:53:26.169Z,59.71
2023-03-07T12:58:42.303Z,60.08
2023-03-07T13:03:57.554Z,60.50
2023-03-07T13:09:06.538Z,61.05
2023-03-07T13:14:43.667Z,61.46
2023-03-07T13:20:01.863Z,61.68
2023-03-07T13:25:39.517Z,61.92
2023-03-07T13:31:38.538Z,62.32
2023-03-07T13:36:46.064Z,62.45
2023-03-07T13:41:55.233Z,62.60
2023-03-07T13:47:05.476Z,62.82
2023-03-07T13:52:37.278Z,62.95
2023-03-07T13:57:46.630Z,63.19
2023-03-07T14:02:56.089Z,63.24
2023-03-07T14:08:07.925Z,63.23
2023-03-07T14:14:01.693Z,63.49
2023-03-07T14:19:31.094Z,63.78
2023-03-07T14:24:59.706Z,63.76
2023-03-07T14:30:20.227Z,63.99
2023-03-07T14:35:45.724Z,64.07
2023-03-07T14:41:13.516Z,64.17
2023-03-07T14:46:32.600Z,64.36
2023-03-07T14:51:44.206Z,64.47
2023-03-07T14:56:55.599Z,64.60
2023-03-07T15:02:03.986Z,65.02
2023-03-07T15:07:23.441Z,64.86
2023-03-07T15:12:33.886Z,65.10
2023-03-07T15:17:44.508Z,65.35
2023-03-07T15:22:55.062Z,65.45
2023-03-07T15:28:06.368Z,65.63
2023-03-07T15:33:24.306Z,65.78
2023-03-07T15:38:34.004Z,65.88
2023-03-07T15:43:41.612Z,66.06
2023-03-07T15:48:52.489Z,66.06
2023-03-07T15:54:03.916Z,66.40
2023-03-07T15:59:24.758Z,66.37
2023-03-07T16:04:43.773Z,66.33
2023-03-07T16:09:51.060Z,66.73
2023-03-07T16:14:59.847Z,66.62
2023-03-07T16:20:15.690Z,66.72
2023-03-07T16:25:24.637Z,67.21
2023-03-07T16:30:37.049Z,67.32
2023-03-07T16:35:45.711Z,67.11
2023-03-07T16:40:54.014Z,67.22
2023-03-07T16:46:02.499Z,67.44
2023-03-07T16:51:17.613Z,67.53
2023-03-07T16:56:30.940Z,67.85
2023-03-07T17:01:39.559Z,67.72
2023-03-07T17:06:57.707Z,68.00
2023-03-07T17:12:11.329Z,67.88
2023-03-07T17:17:24.082Z,67.90
2023-03-07T17:22:32.858Z,68.09
2023-03-07T17:27:44.199Z,68.37
2023-03-07T17:32:53.050Z,68.31
2023-03-07T17:38:02.068Z,68.48
2023-03-07T17:43:11.139Z,68.42
2023-03-07T17:48:19.753Z,68.65
2023-03-07T17:53:28.148Z,68.54
2023-03-07T17:58:36.866Z,68.55
2023-03-07T18:03:46.213Z,68.77
2023-03-07T18:08:55.102Z,68.92
2023-03-07T18:14:04.302Z,68.85
2023-03-07T18:19:25.465Z,68.90
2023-03-07T18:24:35.217Z,69.15
2023-03-07T18:29:42.997Z,69.08
2023-03-07T18:34:52.854Z,69.48
2023-03-07T18:40:01.666Z,69.45
2023-03-07T18:45:12.159Z,69.68
2023-03-07T18:50:21.170Z,69.72
2023-03-07T18:55:30.066Z,69.76
2023-03-07T19:00:38.828Z,70.00
2023-03-07T19:05:52.687Z,70.32
2023-03-07T19:11:02.892Z,70.58
2023-03-07T19:16:13.826Z,70.42
2023-03-07T19:21:24.051Z,71.11
2023-03-07T19:26:32.317Z,71.59
2023-03-07T19:31:41.378Z,71.57
2023-03-07T19:36:49.623Z,72.12
2023-03-07T19:41:57.722Z,71.94
2023-03-07T19:47:06.221Z,72.59
2023-03-07T19:52:14.858Z,72.53
2023-03-07T19:57:23.671Z,72.60
2023-03-07T20:02:31.856Z,73.11
2023-03-07T20:07:40.080Z,72.72
2023-03-07T20:12:49.210Z,73.06
2023-03-07T20:17:57.194Z,72.98
2023-03-07T20:23:05.759Z,72.41
2023-03-07T20:28:14.198Z,72.09
2023-03-07T20:33:23.360Z,72.41
2023-03-07T20:38:30.918Z,72.07
2023-03-07T20:43:42.227Z,72.35
2023-03-07T20:48:52.489Z,72.18
2023-03-07T20:54:02.464Z,72.14
2023-03-07T20:59:13.556Z,72.24
2023-03-07T21:04:22.087Z,72.05
2023-03-07T21:09:30.437Z,72.23
2023-03-07T21:14:42.027Z,72.34
2023-03-07T21:19:49.908Z,72.48
2023-03-07T21:24:58.438Z,72.42
2023-03-07T21:30:08.795Z,72.49
2023-03-07T21:35:16.518Z,72.51
2023-03-07T21:40:24.522Z,72.47
2023-03-07T21:45:33.331Z,72.49
2023-03-07T21:50:45.599Z,72.41
2023-03-07T21:55:54.767Z,72.44
2023-03-07T22:01:02.917Z,72.78
2023-03-07T22:06:12.786Z,72.60
2023-03-07T22:11:21.124Z,72.49
2023-03-07T22:16:29.514Z,72.61
2023-03-07T22:21:37.643Z,72.54
2023-03-07T22:26:46.669Z,72.59
2023-03-07T22:31:55.201Z,72.51
2023-03-07T22:37:03.305Z,72.65
2023-03-07T22:42:11.630Z,72.47
2023-03-07T22:47:18.989Z,72.51
2023-03-07T22:52:27.327Z,72.34
2023-03-07T22:57:36.310Z,72.43
2023-03-07T23:02:44.477Z,72.12
2023-03-07T23:07:52.769Z,72.26
2023-03-07T23:13:01.182Z,72.28
2023-03-07T23:18:09.705Z,72.23
2023-03-07T23:23:17.941Z,72.16
2023-03-07T23:28:26.910Z,72.16
2023-03-07T23:33:35.792Z,72.14
2023-03-07T23:38:43.484Z,72.17
2023-03-07T23:43:54.668Z,72.05
2023-03-07T23:49:02.271Z,71.94
2023-03-07T23:54:10.633Z,72.00
2023-03-07T23:59:19.228Z,72.11
